14°C Temp
13°C Dewpoint
% Humidity
Temperature
3 KM/H
2 MPH
2 KTS
70°
East North
East

Wind Speed
Overcast
Conditions
Pressure 1016.92 (hPa) - 30.03 (in)
Visibility 6.2 (mi) - 10.0 (km)

Current Conditions
EHLW
Location 6km (3.2mi)
Metar :EHLW 172225Z AUTO 07002KT 9999 OVC240 14/13 Q1017 BLU
Mon 17th June 23:25 pm

Airport
  Metar Aviation API Data Provided by https://www.checkwx.com/ PHP scripts by weather34.com ©2019